createdAt,value
2018-10-21T00:01:28.087Z,71.08
2018-10-21T00:03:56.405Z,71.52
2018-10-21T00:06:24.789Z,71.56
2018-10-21T00:08:53.137Z,71.14
2018-10-21T00:11:21.440Z,71.53
2018-10-21T00:13:49.806Z,71.25
2018-10-21T00:16:18.215Z,71.61
2018-10-21T00:18:46.573Z,71.15
2018-10-21T00:21:15.148Z,71.14
2018-10-21T00:23:44.471Z,71.17
2018-10-21T00:26:13.597Z,71.43
2018-10-21T00:28:41.910Z,71.13
2018-10-21T00:31:10.309Z,70.76
2018-10-21T00:33:38.582Z,71.10
2018-10-21T00:36:07.957Z,71.24
2018-10-21T00:38:36.314Z,71.31
2018-10-21T00:41:04.800Z,71.03
2018-10-21T00:43:33.175Z,71.13
2018-10-21T00:46:01.526Z,71.13
2018-10-21T00:48:29.872Z,71.04
2018-10-21T00:50:58.269Z,70.81
2018-10-21T00:53:26.613Z,71.47
2018-10-21T00:55:55.031Z,71.71
2018-10-21T00:58:23.302Z,71.93
2018-10-21T01:00:51.634Z,71.73
2018-10-21T01:03:19.918Z,71.47
2018-10-21T01:05:48.224Z,71.39
2018-10-21T01:08:16.531Z,71.36
2018-10-21T01:10:44.864Z,71.65
2018-10-21T01:13:13.218Z,71.69
2018-10-21T01:15:41.561Z,71.69
2018-10-21T01:18:09.929Z,71.59
2018-10-21T01:20:38.277Z,71.55
2018-10-21T01:23:06.585Z,71.60
2018-10-21T01:25:34.957Z,71.61
2018-10-21T01:28:03.266Z,71.87
2018-10-21T01:30:31.574Z,72.12
2018-10-21T01:32:59.875Z,72.12
2018-10-21T01:35:28.149Z,72.34
2018-10-21T01:37:56.519Z,72.30
2018-10-21T01:40:34.199Z,71.59
2018-10-21T01:43:03.002Z,71.68
2018-10-21T01:45:31.300Z,71.97
2018-10-21T01:48:00.768Z,71.58
2018-10-21T01:50:29.067Z,72.06
2018-10-21T01:52:58.730Z,72.01
2018-10-21T01:55:27.111Z,71.61
2018-10-21T01:57:56.422Z,72.12
2018-10-21T02:00:25.412Z,71.73
2018-10-21T02:02:54.197Z,72.03
2018-10-21T02:05:23.012Z,72.27
2018-10-21T02:07:52.147Z,72.65
2018-10-21T02:10:20.447Z,72.44
2018-10-21T02:12:48.869Z,72.26
2018-10-21T02:15:17.181Z,72.07
2018-10-21T02:17:45.457Z,72.51
2018-10-21T02:20:14.631Z,72.62
2018-10-21T02:22:43.683Z,72.47
2018-10-21T02:25:12.286Z,72.37
2018-10-21T02:27:41.191Z,72.04
2018-10-21T02:30:12.508Z,72.39
2018-10-21T02:32:40.900Z,72.81
2018-10-21T02:35:10.237Z,73.01
2018-10-21T02:37:39.285Z,73.49
2018-10-21T02:40:17.876Z,74.31
2018-10-21T02:42:46.245Z,74.38
2018-10-21T02:45:14.705Z,74.36
2018-10-21T02:47:43.067Z,74.17
2018-10-21T02:50:11.385Z,74.27
2018-10-21T02:52:39.664Z,74.34
2018-10-21T02:55:08.067Z,74.66
2018-10-21T02:57:36.451Z,74.85
2018-10-21T03:00:04.879Z,74.92
2018-10-21T03:02:33.251Z,74.39
2018-10-21T03:05:01.514Z,74.41
2018-10-21T03:07:29.810Z,74.26
2018-10-21T03:09:58.115Z,74.01
2018-10-21T03:12:26.448Z,74.45
2018-10-21T03:14:54.874Z,73.89
2018-10-21T03:17:23.175Z,74.38
2018-10-21T03:19:51.841Z,74.42
2018-10-21T03:22:20.285Z,74.11
2018-10-21T03:24:48.616Z,74.39
2018-10-21T03:27:17.015Z,74.55
2018-10-21T03:29:45.368Z,74.58
2018-10-21T03:32:13.763Z,74.48
2018-10-21T03:34:42.133Z,74.02
2018-10-21T03:37:10.464Z,74.38
2018-10-21T03:39:38.790Z,74.46
2018-10-21T03:42:07.152Z,74.35
2018-10-21T03:44:35.477Z,74.16
2018-10-21T03:47:03.846Z,74.36
2018-10-21T03:49:32.121Z,74.15
2018-10-21T03:52:00.476Z,74.15
2018-10-21T03:54:28.969Z,73.44
2018-10-21T03:56:57.279Z,73.59
2018-10-21T03:59:25.560Z,73.84
2018-10-21T04:01:53.906Z,73.93
2018-10-21T04:04:22.295Z,73.36
2018-10-21T04:06:50.623Z,73.63
2018-10-21T04:09:18.933Z,73.74
2018-10-21T04:11:47.274Z,73.84
2018-10-21T04:14:15.553Z,73.52
2018-10-21T04:16:43.930Z,73.70
2018-10-21T04:19:12.201Z,74.13
2018-10-21T04:21:40.471Z,73.71
2018-10-21T04:24:08.777Z,74.03
2018-10-21T04:26:37.153Z,73.59
2018-10-21T04:29:05.483Z,73.49
2018-10-21T04:31:33.761Z,73.79
2018-10-21T04:34:02.164Z,73.61
2018-10-21T04:36:31.646Z,73.09
2018-10-21T04:39:34.372Z,73.62
2018-10-21T04:42:02.665Z,73.75
2018-10-21T04:44:30.987Z,73.76
2018-10-21T04:46:59.440Z,73.83
2018-10-21T04:49:27.659Z,73.42
2018-10-21T04:51:55.959Z,73.78
2018-10-21T04:54:24.282Z,73.19
2018-10-21T04:56:52.591Z,73.96
2018-10-21T04:59:20.894Z,73.83
2018-10-21T05:01:49.210Z,73.07
2018-10-21T05:04:17.598Z,73.29
2018-10-21T05:06:45.798Z,73.24
2018-10-21T05:09:14.157Z,73.17
2018-10-21T05:11:42.465Z,73.27
2018-10-21T05:14:10.745Z,73.86
2018-10-21T05:16:39.106Z,73.32
2018-10-21T05:19:07.394Z,73.50
2018-10-21T05:21:35.753Z,73.48
2018-10-21T05:24:04.147Z,73.45
2018-10-21T05:26:32.510Z,73.17
2018-10-21T05:29:00.857Z,73.40
2018-10-21T05:31:29.373Z,73.38
2018-10-21T05:33:58.388Z,73.58
2018-10-21T05:36:26.695Z,73.40
2018-10-21T05:38:55.117Z,73.70
2018-10-21T05:41:23.455Z,73.42
2018-10-21T05:43:51.814Z,73.61
2018-10-21T05:46:31.245Z,73.97
2018-10-21T05:48:59.649Z,73.94
2018-10-21T05:51:27.929Z,74.02
2018-10-21T05:53:56.219Z,73.89
2018-10-21T05:56:24.810Z,74.24
2018-10-21T05:58:53.192Z,74.18
2018-10-21T06:01:21.565Z,73.43
2018-10-21T06:03:49.944Z,73.45
2018-10-21T06:06:18.291Z,73.80
2018-10-21T06:08:46.668Z,73.79
2018-10-21T06:11:14.979Z,74.36
2018-10-21T06:13:43.241Z,74.22
2018-10-21T06:16:11.525Z,73.79
2018-10-21T06:18:39.981Z,73.71
2018-10-21T06:21:08.387Z,73.67
2018-10-21T06:23:36.775Z,73.81
2018-10-21T06:26:05.259Z,74.12
2018-10-21T06:28:33.769Z,74.06
2018-10-21T06:31:02.118Z,74.09
2018-10-21T06:33:30.490Z,73.80
2018-10-21T06:35:59.003Z,73.13
2018-10-21T06:38:27.460Z,74.07
2018-10-21T06:40:55.826Z,73.60
2018-10-21T06:43:24.108Z,73.47
2018-10-21T06:45:52.532Z,73.53
2018-10-21T06:48:20.883Z,73.43
2018-10-21T06:50:49.183Z,73.49
2018-10-21T06:53:17.577Z,73.22
2018-10-21T06:55:45.929Z,74.14
2018-10-21T06:58:14.267Z,73.67
2018-10-21T07:00:42.683Z,74.00
2018-10-21T07:03:11.031Z,74.20
2018-10-21T07:06:17.273Z,73.61
2018-10-21T07:08:46.245Z,74.21
2018-10-21T07:11:14.844Z,73.78
2018-10-21T07:13:43.419Z,74.08
2018-10-21T07:16:12.187Z,73.90
2018-10-21T07:18:41.092Z,74.00
2018-10-21T07:21:09.433Z,74.54
2018-10-21T07:23:37.925Z,74.56
2018-10-21T07:26:06.605Z,74.50
2018-10-21T07:28:35.088Z,74.71
2018-10-21T07:31:03.615Z,74.54
2018-10-21T07:33:31.933Z,74.61
2018-10-21T07:36:00.361Z,74.05
2018-10-21T07:38:28.671Z,74.38
2018-10-21T07:40:57.254Z,73.87
2018-10-21T07:43:25.801Z,73.81
2018-10-21T07:45:54.165Z,73.21
2018-10-21T07:48:22.530Z,73.09
2018-10-21T07:50:50.873Z,73.42
2018-10-21T07:53:19.171Z,73.00
2018-10-21T07:55:47.506Z,73.27
2018-10-21T07:58:16.015Z,73.05
2018-10-21T08:00:44.390Z,72.98
2018-10-21T08:03:12.818Z,73.64
2018-10-21T08:05:52.427Z,72.92
2018-10-21T08:08:24.871Z,73.21
2018-10-21T08:10:53.238Z,73.32
2018-10-21T08:13:23.929Z,73.64
2018-10-21T08:15:52.317Z,73.69
2018-10-21T08:18:20.646Z,73.18
2018-10-21T08:20:49.898Z,72.73
2018-10-21T08:23:19.019Z,72.77
2018-10-21T08:25:48.820Z,73.06
2018-10-21T08:28:17.246Z,73.06
2018-10-21T08:30:45.629Z,72.79
2018-10-21T08:33:14.071Z,72.61
2018-10-21T08:35:42.387Z,72.98
2018-10-21T08:38:10.788Z,73.17
2018-10-21T08:40:39.213Z,73.12
2018-10-21T08:43:07.606Z,73.82
2018-10-21T08:45:36.029Z,73.19
2018-10-21T08:48:04.420Z,73.14
2018-10-21T08:50:33.281Z,73.27
2018-10-21T08:53:01.654Z,72.83
2018-10-21T08:55:30.018Z,72.87
2018-10-21T08:57:58.362Z,72.89
2018-10-21T09:00:26.858Z,72.99
2018-10-21T09:02:55.203Z,72.84
2018-10-21T09:05:23.512Z,72.59
2018-10-21T09:07:51.852Z,72.86
2018-10-21T09:10:20.423Z,72.62
2018-10-21T09:12:48.608Z,72.96
2018-10-21T09:15:18.572Z,72.81
2018-10-21T09:17:47.037Z,72.73
2018-10-21T09:20:17.560Z,72.67
2018-10-21T09:22:46.048Z,72.16
2018-10-21T09:25:14.934Z,72.74
2018-10-21T09:27:44.052Z,71.81
2018-10-21T09:30:14.287Z,72.30
2018-10-21T09:32:42.626Z,72.44
2018-10-21T09:35:14.124Z,72.63
2018-10-21T09:37:42.988Z,71.79
2018-10-21T09:40:14.829Z,72.02
2018-10-21T09:42:43.477Z,71.94
2018-10-21T09:45:13.851Z,71.66
2018-10-21T09:47:42.607Z,70.97
2018-10-21T09:50:11.227Z,71.97
2018-10-21T09:52:39.727Z,71.30
2018-10-21T09:55:13.888Z,70.84
2018-10-21T09:57:42.217Z,70.46
2018-10-21T10:00:10.675Z,69.84
2018-10-21T10:02:44.510Z,69.84
2018-10-21T10:05:13.054Z,69.25
2018-10-21T10:07:41.376Z,69.61
2018-10-21T10:10:10.995Z,69.00
2018-10-21T10:12:39.547Z,68.43
2018-10-21T10:15:08.753Z,68.03
2018-10-21T10:17:37.150Z,67.82
2018-10-21T10:20:06.488Z,68.33
2018-10-21T10:22:34.913Z,68.02
2018-10-21T10:25:03.462Z,67.61
2018-10-21T10:27:31.782Z,67.67
2018-10-21T10:30:00.274Z,67.66
2018-10-21T10:32:28.755Z,67.04
2018-10-21T10:34:57.082Z,67.00
2018-10-21T10:37:25.533Z,66.51
2018-10-21T10:39:53.900Z,66.47
2018-10-21T10:42:22.372Z,65.94
2018-10-21T10:44:50.669Z,66.31
2018-10-21T10:47:19.083Z,66.16
2018-10-21T10:49:47.614Z,66.58
2018-10-21T10:52:16.198Z,65.75
2018-10-21T10:54:44.560Z,65.84
2018-10-21T10:57:12.884Z,66.81
2018-10-21T10:59:41.310Z,66.51
2018-10-21T11:02:09.684Z,66.54
2018-10-21T11:04:38.075Z,66.68
2018-10-21T11:07:06.959Z,65.86
2018-10-21T11:09:35.472Z,65.75
2018-10-21T11:12:03.884Z,65.31
2018-10-21T11:14:32.315Z,65.80
2018-10-21T11:17:00.706Z,65.35
2018-10-21T11:19:29.114Z,63.70
2018-10-21T11:21:57.453Z,63.14
2018-10-21T11:24:25.837Z,62.65
2018-10-21T11:26:54.375Z,62.12
2018-10-21T11:29:22.787Z,61.39
2018-10-21T11:31:51.263Z,61.00
2018-10-21T11:34:19.761Z,61.26
2018-10-21T11:36:48.301Z,61.68
2018-10-21T11:39:16.589Z,61.48
2018-10-21T11:41:45.018Z,62.01
2018-10-21T11:44:13.393Z,62.48
2018-10-21T11:46:42.104Z,61.87
2018-10-21T11:49:10.464Z,62.40
2018-10-21T11:51:38.794Z,62.43
2018-10-21T11:54:07.191Z,62.96
2018-10-21T11:56:37.659Z,62.89
2018-10-21T11:59:07.304Z,63.56
2018-10-21T12:01:35.626Z,63.27
2018-10-21T12:04:04.144Z,63.19
2018-10-21T12:06:32.575Z,63.38
2018-10-21T12:09:00.898Z,62.74
2018-10-21T12:11:29.303Z,62.70
2018-10-21T12:13:57.665Z,62.99
2018-10-21T12:16:26.093Z,62.60
2018-10-21T12:18:54.432Z,62.20
2018-10-21T12:21:22.865Z,62.00
2018-10-21T12:23:51.307Z,61.64
2018-10-21T12:26:19.650Z,61.51
2018-10-21T12:28:48.031Z,61.57
2018-10-21T12:31:16.428Z,60.96
2018-10-21T12:33:46.733Z,60.57
2018-10-21T12:36:16.258Z,59.89
2018-10-21T12:38:44.694Z,59.74
2018-10-21T12:41:13.507Z,59.23
2018-10-21T12:43:42.472Z,59.52
2018-10-21T12:46:11.172Z,59.78
2018-10-21T12:48:39.486Z,59.54
2018-10-21T12:51:08.106Z,59.38
2018-10-21T12:53:36.691Z,59.98
2018-10-21T12:56:05.262Z,59.83
2018-10-21T12:58:33.651Z,60.14
2018-10-21T13:01:02.140Z,59.92
2018-10-21T13:03:30.474Z,58.92
2018-10-21T13:05:58.960Z,59.73
2018-10-21T13:08:27.350Z,59.58
2018-10-21T13:10:55.669Z,59.37
2018-10-21T13:13:24.446Z,59.22
2018-10-21T13:15:52.798Z,59.14
2018-10-21T13:18:21.229Z,59.57
2018-10-21T13:20:49.921Z,59.42
2018-10-21T13:23:18.959Z,59.48
2018-10-21T13:25:47.578Z,59.27
2018-10-21T13:28:16.080Z,59.96
2018-10-21T13:30:44.460Z,60.08
2018-10-21T13:33:12.789Z,59.67
2018-10-21T13:35:41.330Z,60.36
2018-10-21T13:38:09.934Z,60.61
2018-10-21T13:40:38.319Z,59.68
2018-10-21T13:43:07.118Z,59.76
2018-10-21T13:45:35.640Z,60.41
2018-10-21T13:48:04.124Z,59.51
2018-10-21T13:50:32.483Z,60.03
2018-10-21T13:53:00.817Z,60.08
2018-10-21T13:55:29.198Z,60.56
2018-10-21T13:57:57.708Z,60.07
2018-10-21T14:00:26.160Z,60.68
2018-10-21T14:02:54.480Z,60.24
2018-10-21T14:05:23.013Z,60.18
2018-10-21T14:07:51.462Z,60.40
2018-10-21T14:10:20.087Z,60.39
2018-10-21T14:12:48.479Z,60.11
2018-10-21T14:15:16.901Z,60.90
2018-10-21T14:17:46.365Z,60.12
2018-10-21T14:20:14.769Z,60.79
2018-10-21T14:22:43.357Z,60.30
2018-10-21T14:25:11.898Z,60.14
2018-10-21T14:27:40.530Z,60.10
2018-10-21T14:30:10.149Z,60.32
2018-10-21T14:32:38.939Z,59.67
2018-10-21T14:35:09.221Z,59.80
2018-10-21T14:37:38.067Z,60.10
2018-10-21T14:40:08.218Z,60.83
2018-10-21T14:42:36.597Z,60.19
2018-10-21T14:45:06.008Z,60.12
2018-10-21T14:47:34.385Z,60.54
2018-10-21T14:50:02.823Z,59.71
2018-10-21T14:52:31.282Z,59.76
2018-10-21T14:54:59.683Z,59.83
2018-10-21T14:57:28.147Z,60.05
2018-10-21T14:59:56.514Z,60.05
2018-10-21T15:02:24.861Z,59.85
2018-10-21T15:04:53.204Z,58.76
2018-10-21T15:07:21.785Z,58.23
2018-10-21T15:09:50.285Z,58.07
2018-10-21T15:12:18.721Z,58.69
2018-10-21T15:14:47.095Z,58.63
2018-10-21T15:17:15.589Z,58.98
2018-10-21T15:19:44.142Z,58.68
2018-10-21T15:22:12.609Z,59.38
2018-10-21T15:24:40.883Z,59.18
2018-10-21T15:27:09.213Z,58.68
2018-10-21T15:29:37.577Z,59.34
2018-10-21T15:32:06.189Z,58.84
2018-10-21T15:34:34.716Z,58.49
2018-10-21T15:37:03.756Z,58.21
2018-10-21T15:39:32.276Z,58.04
2018-10-21T15:42:00.654Z,56.68
2018-10-21T15:44:29.013Z,56.36
2018-10-21T15:46:57.425Z,56.90
2018-10-21T15:49:25.888Z,57.49
2018-10-21T15:51:54.580Z,56.82
2018-10-21T15:54:22.952Z,57.05
2018-10-21T15:56:51.615Z,56.65
2018-10-21T15:59:20.629Z,56.87
2018-10-21T16:01:49.125Z,57.10
2018-10-21T16:04:17.556Z,57.27
2018-10-21T16:06:46.219Z,57.53
2018-10-21T16:09:14.610Z,58.15
2018-10-21T16:11:43.159Z,58.06
2018-10-21T16:14:11.717Z,58.44
2018-10-21T16:16:40.138Z,58.46
2018-10-21T16:19:08.828Z,58.28
2018-10-21T16:21:42.873Z,58.73
2018-10-21T16:24:11.360Z,58.67
2018-10-21T16:26:39.765Z,59.20
2018-10-21T16:29:08.402Z,59.04
2018-10-21T16:31:36.792Z,59.20
2018-10-21T16:34:05.580Z,59.02
2018-10-21T16:36:34.073Z,58.67
2018-10-21T16:39:02.710Z,59.21
2018-10-21T16:41:33.411Z,58.84
2018-10-21T16:44:02.193Z,59.22
2018-10-21T16:46:30.561Z,59.86
2018-10-21T16:48:59.050Z,60.03
2018-10-21T16:51:27.550Z,59.35
2018-10-21T16:53:56.050Z,60.10
2018-10-21T16:56:24.427Z,59.81
2018-10-21T16:58:52.806Z,60.20
2018-10-21T17:01:21.243Z,60.23
2018-10-21T17:03:50.015Z,60.48
2018-10-21T17:06:18.625Z,60.28
2018-10-21T17:08:47.328Z,60.08
2018-10-21T17:11:16.656Z,59.76
2018-10-21T17:13:45.612Z,60.26
2018-10-21T17:16:14.050Z,60.32
2018-10-21T17:18:42.751Z,60.19
2018-10-21T17:21:11.552Z,60.09
2018-10-21T17:23:40.202Z,59.69
2018-10-21T17:26:09.500Z,59.79
2018-10-21T17:28:38.535Z,59.67
2018-10-21T17:31:07.343Z,59.24
2018-10-21T17:33:36.480Z,59.76
2018-10-21T17:36:05.516Z,59.83
2018-10-21T17:38:34.364Z,59.66
2018-10-21T17:41:03.238Z,59.53
2018-10-21T17:43:32.609Z,59.89
2018-10-21T17:46:02.182Z,59.12
2018-10-21T17:48:31.098Z,59.35
2018-10-21T17:51:00.104Z,58.86
2018-10-21T17:53:28.877Z,59.13
2018-10-21T17:55:57.575Z,59.15
2018-10-21T17:58:26.467Z,59.44
2018-10-21T18:00:55.047Z,59.52
2018-10-21T18:03:23.772Z,59.32
2018-10-21T18:05:52.312Z,58.94
2018-10-21T18:08:21.927Z,59.23
2018-10-21T18:10:50.792Z,58.82
2018-10-21T18:13:20.542Z,58.74
2018-10-21T18:15:49.538Z,58.88
2018-10-21T18:18:18.467Z,58.55
2018-10-21T18:20:47.576Z,58.60
2018-10-21T18:23:16.338Z,58.69
2018-10-21T18:25:45.133Z,59.18
2018-10-21T18:28:14.336Z,59.01
2018-10-21T18:30:43.404Z,58.81
2018-10-21T18:33:12.164Z,59.15
2018-10-21T18:35:40.874Z,58.14
2018-10-21T18:38:09.840Z,58.29
2018-10-21T18:40:39.376Z,58.75
2018-10-21T18:43:08.487Z,58.70
2018-10-21T18:45:37.261Z,58.10
2018-10-21T18:48:06.203Z,58.17
2018-10-21T18:50:35.230Z,57.85
2018-10-21T18:53:04.110Z,57.92
2018-10-21T18:55:33.244Z,58.04
2018-10-21T18:58:02.455Z,58.17
2018-10-21T19:00:31.506Z,58.13
2018-10-21T19:03:00.990Z,57.86
2018-10-21T19:05:29.768Z,58.16
2018-10-21T19:07:59.270Z,58.01
2018-10-21T19:10:30.122Z,58.16
2018-10-21T19:13:00.053Z,58.10
2018-10-21T19:15:29.121Z,57.69
2018-10-21T19:17:58.588Z,58.47
2018-10-21T19:20:28.361Z,57.59
2018-10-21T19:22:59.041Z,57.84
2018-10-21T19:25:28.504Z,58.29
2018-10-21T19:27:58.292Z,57.88
2018-10-21T19:30:28.009Z,57.93
2018-10-21T19:32:57.778Z,57.46
2018-10-21T19:35:27.299Z,57.27
2018-10-21T19:37:56.202Z,57.25
2018-10-21T19:40:25.461Z,57.42
2018-10-21T19:42:55.801Z,57.16
2018-10-21T19:45:25.055Z,57.28
2018-10-21T19:47:54.488Z,57.25
2018-10-21T19:50:24.465Z,57.20
2018-10-21T19:52:53.913Z,57.56
2018-10-21T19:55:24.648Z,56.92
2018-10-21T19:57:54.001Z,57.14
2018-10-21T20:00:23.760Z,57.41
2018-10-21T20:02:53.779Z,56.77
2018-10-21T20:05:23.533Z,56.70
2018-10-21T20:07:53.449Z,56.08
2018-10-21T20:10:23.683Z,56.65
2018-10-21T20:12:53.254Z,56.93
2018-10-21T20:15:22.581Z,57.14
2018-10-21T20:17:52.417Z,56.78
2018-10-21T20:20:21.842Z,57.49
2018-10-21T20:22:50.721Z,56.26
2018-10-21T20:25:20.612Z,57.11
2018-10-21T20:27:49.800Z,56.85
2018-10-21T20:30:19.317Z,57.13
2018-10-21T20:32:48.443Z,57.59
2018-10-21T20:35:18.080Z,56.77
2018-10-21T20:37:47.551Z,57.34
2018-10-21T20:40:16.616Z,57.08
2018-10-21T20:42:45.468Z,56.96
2018-10-21T20:45:14.745Z,57.62
2018-10-21T20:47:44.215Z,57.15
2018-10-21T20:50:13.422Z,57.15
2018-10-21T20:52:42.882Z,56.43
2018-10-21T20:55:11.780Z,56.65
2018-10-21T20:57:40.681Z,57.00
2018-10-21T21:00:09.773Z,57.51
2018-10-21T21:02:38.561Z,57.59
2018-10-21T21:05:10.210Z,56.93
2018-10-21T21:07:39.295Z,57.10
2018-10-21T21:10:08.853Z,57.56
2018-10-21T21:12:37.740Z,57.53
2018-10-21T21:15:07.186Z,56.86
2018-10-21T21:17:35.849Z,57.32
2018-10-21T21:20:04.258Z,56.95
2018-10-21T21:22:32.694Z,57.44
2018-10-21T21:25:01.200Z,57.41
2018-10-21T21:27:29.571Z,57.91
2018-10-21T21:29:58.716Z,57.37
2018-10-21T21:32:27.096Z,58.29
2018-10-21T21:34:55.629Z,58.21
2018-10-21T21:37:23.967Z,57.92
2018-10-21T21:39:52.399Z,58.09
2018-10-21T21:42:20.881Z,57.97
2018-10-21T21:44:49.241Z,58.02
2018-10-21T21:47:17.563Z,57.88
2018-10-21T21:49:46.438Z,58.97
2018-10-21T21:52:14.812Z,58.82
2018-10-21T21:54:43.197Z,58.99
2018-10-21T21:57:11.498Z,59.21
2018-10-21T21:59:39.957Z,59.31
2018-10-21T22:02:08.541Z,59.50
2018-10-21T22:04:36.850Z,59.55
2018-10-21T22:07:05.663Z,60.23
2018-10-21T22:09:34.510Z,60.14
2018-10-21T22:12:02.806Z,60.31
2018-10-21T22:14:31.143Z,60.46
2018-10-21T22:16:59.561Z,60.52
2018-10-21T22:19:27.981Z,60.77
2018-10-21T22:21:56.315Z,61.12
2018-10-21T22:24:24.856Z,61.12
2018-10-21T22:26:53.197Z,61.47
2018-10-21T22:29:21.558Z,61.26
2018-10-21T22:31:50.082Z,61.90
2018-10-21T22:34:18.961Z,61.79
2018-10-21T22:36:47.316Z,61.67
2018-10-21T22:39:15.720Z,62.15
2018-10-21T22:41:44.183Z,62.51
2018-10-21T22:44:12.590Z,62.05
2018-10-21T22:46:41.051Z,62.88
2018-10-21T22:49:10.543Z,62.53
2018-10-21T22:51:38.870Z,61.89
2018-10-21T22:54:07.325Z,62.23
2018-10-21T22:56:35.634Z,61.70
2018-10-21T22:59:04.032Z,61.91
2018-10-21T23:01:32.372Z,61.77
2018-10-21T23:04:00.672Z,61.76
2018-10-21T23:06:29.014Z,61.80
2018-10-21T23:08:57.340Z,62.31
2018-10-21T23:11:25.745Z,61.60
2018-10-21T23:13:54.023Z,61.79
2018-10-21T23:16:22.341Z,61.78
2018-10-21T23:18:50.691Z,61.57
2018-10-21T23:21:18.963Z,62.04
2018-10-21T23:23:47.379Z,61.74
2018-10-21T23:26:15.735Z,61.53
2018-10-21T23:28:44.011Z,62.09
2018-10-21T23:31:12.323Z,61.26
2018-10-21T23:33:40.626Z,61.35
2018-10-21T23:36:08.955Z,61.05
2018-10-21T23:38:37.360Z,61.14
2018-10-21T23:41:05.786Z,61.53
2018-10-21T23:43:34.080Z,61.13
2018-10-21T23:46:02.411Z,61.30
2018-10-21T23:48:31.774Z,61.52
2018-10-21T23:51:00.142Z,61.21
2018-10-21T23:53:28.408Z,61.64
2018-10-21T23:55:56.738Z,60.96
2018-10-21T23:58:25.094Z,61.19
